sensor_id;sensor_type;location;lat;lon;timestamp;pressure;altitude;pressure_sealevel;temperature;humidity
73674;BME280;61975;48.660;10.164;2023-08-24T00:00:40;95903.22;;;21.08;87.67
73674;BME280;61975;48.660;10.164;2023-08-24T00:03:05;95913.03;;;21.04;88.29
73674;BME280;61975;48.660;10.164;2023-08-24T00:05:35;95903.84;;;21.00;88.50
73674;BME280;61975;48.660;10.164;2023-08-24T00:08:04;95901.94;;;20.97;88.51
73674;BME280;61975;48.660;10.164;2023-08-24T00:10:29;95899.22;;;20.93;88.92
73674;BME280;61975;48.660;10.164;2023-08-24T00:12:55;95898.03;;;20.91;88.76
73674;BME280;61975;48.660;10.164;2023-08-24T00:15:20;95894.09;;;20.88;89.15
73674;BME280;61975;48.660;10.164;2023-08-24T00:17:45;95895.75;;;20.86;89.39
73674;BME280;61975;48.660;10.164;2023-08-24T00:20:11;95894.97;;;20.85;89.52
73674;BME280;61975;48.660;10.164;2023-08-24T00:22:40;95900.25;;;20.83;89.50
73674;BME280;61975;48.660;10.164;2023-08-24T00:25:07;95889.41;;;20.82;89.67
73674;BME280;61975;48.660;10.164;2023-08-24T00:27:33;95887.81;;;20.81;89.35
73674;BME280;61975;48.660;10.164;2023-08-24T00:29:58;95894.34;;;20.78;89.55
73674;BME280;61975;48.660;10.164;2023-08-24T00:32:24;95878.31;;;20.75;89.34
73674;BME280;61975;48.660;10.164;2023-08-24T00:34:49;95880.88;;;20.69;89.71
73674;BME280;61975;48.660;10.164;2023-08-24T00:37:14;95887.06;;;20.64;90.04
73674;BME280;61975;48.660;10.164;2023-08-24T00:39:40;95879.81;;;20.63;90.30
73674;BME280;61975;48.660;10.164;2023-08-24T00:42:05;95880.38;;;20.58;90.52
73674;BME280;61975;48.660;10.164;2023-08-24T00:44:31;95877.97;;;20.57;90.81
73674;BME280;61975;48.660;10.164;2023-08-24T00:46:58;95876.84;;;20.54;90.70
73674;BME280;61975;48.660;10.164;2023-08-24T00:49:25;95869.59;;;20.53;90.61
73674;BME280;61975;48.660;10.164;2023-08-24T00:51:51;95874.91;;;20.51;90.53
73674;BME280;61975;48.660;10.164;2023-08-24T00:54:16;95874.97;;;20.48;90.59
73674;BME280;61975;48.660;10.164;2023-08-24T00:56:43;95871.38;;;20.47;90.62
73674;BME280;61975;48.660;10.164;2023-08-24T00:59:09;95872.28;;;20.44;90.96
73674;BME280;61975;48.660;10.164;2023-08-24T01:01:34;95871.13;;;20.42;90.93
73674;BME280;61975;48.660;10.164;2023-08-24T01:04:00;95869.97;;;20.39;90.87
73674;BME280;61975;48.660;10.164;2023-08-24T01:06:25;95870.41;;;20.38;90.87
73674;BME280;61975;48.660;10.164;2023-08-24T01:08:51;95874.56;;;20.33;91.57
73674;BME280;61975;48.660;10.164;2023-08-24T01:14:23;95868.66;;;20.28;91.58
73674;BME280;61975;48.660;10.164;2023-08-24T01:16:58;95861.84;;;20.25;91.34
73674;BME280;61975;48.660;10.164;2023-08-24T01:24:46;95861.25;;;20.18;92.13
73674;BME280;61975;48.660;10.164;2023-08-24T01:27:12;95863.72;;;20.16;92.19
73674;BME280;61975;48.660;10.164;2023-08-24T01:29:39;95850.44;;;20.16;92.29
73674;BME280;61975;48.660;10.164;2023-08-24T01:32:09;95864.16;;;20.14;92.18
73674;BME280;61975;48.660;10.164;2023-08-24T01:34:36;95863.81;;;20.12;92.53
73674;BME280;61975;48.660;10.164;2023-08-24T01:37:02;95852.16;;;20.10;92.60
73674;BME280;61975;48.660;10.164;2023-08-24T01:42:03;95854.25;;;20.06;92.51
73674;BME280;61975;48.660;10.164;2023-08-24T01:44:35;95850.31;;;20.04;92.27
73674;BME280;61975;48.660;10.164;2023-08-24T01:47:04;95852.75;;;20.02;92.65
73674;BME280;61975;48.660;10.164;2023-08-24T01:49:31;95843.94;;;20.00;92.61
73674;BME280;61975;48.660;10.164;2023-08-24T01:51:58;95851.63;;;19.99;93.01
73674;BME280;61975;48.660;10.164;2023-08-24T01:54:24;95847.28;;;19.95;92.96
73674;BME280;61975;48.660;10.164;2023-08-24T01:56:49;95850.91;;;19.95;93.49
73674;BME280;61975;48.660;10.164;2023-08-24T01:59:15;95842.91;;;19.94;93.45
73674;BME280;61975;48.660;10.164;2023-08-24T02:01:40;95837.69;;;19.92;93.46
73674;BME280;61975;48.660;10.164;2023-08-24T02:04:06;95838.13;;;19.91;93.61
73674;BME280;61975;48.660;10.164;2023-08-24T02:06:31;95832.94;;;19.89;93.32
73674;BME280;61975;48.660;10.164;2023-08-24T02:08:56;95828.19;;;19.86;93.44
73674;BME280;61975;48.660;10.164;2023-08-24T02:11:22;95832.22;;;19.85;93.54
73674;BME280;61975;48.660;10.164;2023-08-24T02:13:47;95831.09;;;19.83;93.69
73674;BME280;61975;48.660;10.164;2023-08-24T02:16:12;95836.34;;;19.81;93.90
73674;BME280;61975;48.660;10.164;2023-08-24T02:18:38;95829.16;;;19.80;93.88
73674;BME280;61975;48.660;10.164;2023-08-24T02:21:07;95823.59;;;19.76;94.26
73674;BME280;61975;48.660;10.164;2023-08-24T02:23:33;95821.63;;;19.73;94.44
73674;BME280;61975;48.660;10.164;2023-08-24T02:25:59;95821.31;;;19.71;94.57
73674;BME280;61975;48.660;10.164;2023-08-24T02:28:24;95824.19;;;19.68;95.13
73674;BME280;61975;48.660;10.164;2023-08-24T02:30:50;95815.56;;;19.59;96.30
73674;BME280;61975;48.660;10.164;2023-08-24T02:33:15;95821.25;;;19.55;96.77
73674;BME280;61975;48.660;10.164;2023-08-24T02:35:40;95814.81;;;19.55;96.85
73674;BME280;61975;48.660;10.164;2023-08-24T02:38:06;95814.50;;;19.53;96.80
73674;BME280;61975;48.660;10.164;2023-08-24T02:40:31;95814.13;;;19.51;96.97
73674;BME280;61975;48.660;10.164;2023-08-24T02:42:56;95825.81;;;19.49;97.21
73674;BME280;61975;48.660;10.164;2023-08-24T02:45:22;95826.72;;;19.46;97.27
73674;BME280;61975;48.660;10.164;2023-08-24T02:47:47;95821.09;;;19.46;96.83
73674;BME280;61975;48.660;10.164;2023-08-24T02:50:13;95822.81;;;19.40;97.41
73674;BME280;61975;48.660;10.164;2023-08-24T02:52:38;95815.41;;;19.30;98.43
73674;BME280;61975;48.660;10.164;2023-08-24T02:55:04;95828.59;;;19.33;98.01
73674;BME280;61975;48.660;10.164;2023-08-24T02:57:29;95827.00;;;19.32;98.18
73674;BME280;61975;48.660;10.164;2023-08-24T02:59:55;95831.06;;;19.31;98.10
73674;BME280;61975;48.660;10.164;2023-08-24T03:02:20;95837.53;;;19.28;98.59
73674;BME280;61975;48.660;10.164;2023-08-24T03:04:45;95830.72;;;19.29;98.41
73674;BME280;61975;48.660;10.164;2023-08-24T03:07:11;95842.03;;;19.26;98.31
73674;BME280;61975;48.660;10.164;2023-08-24T03:09:37;95844.03;;;19.25;98.24
73674;BME280;61975;48.660;10.164;2023-08-24T03:12:02;95844.97;;;19.19;98.70
73674;BME280;61975;48.660;10.164;2023-08-24T03:14:28;95842.53;;;19.21;98.35
73674;BME280;61975;48.660;10.164;2023-08-24T03:16:54;95847.34;;;19.20;98.33
73674;BME280;61975;48.660;10.164;2023-08-24T03:19:19;95849.78;;;19.18;98.20
73674;BME280;61975;48.660;10.164;2023-08-24T03:21:44;95837.75;;;19.18;98.01
73674;BME280;61975;48.660;10.164;2023-08-24T03:24:10;95839.75;;;19.17;97.68
73674;BME280;61975;48.660;10.164;2023-08-24T03:26:36;95832.56;;;19.16;97.85
73674;BME280;61975;48.660;10.164;2023-08-24T03:29:01;95826.56;;;19.14;97.90
73674;BME280;61975;48.660;10.164;2023-08-24T03:31:26;95822.16;;;19.13;98.04
73674;BME280;61975;48.660;10.164;2023-08-24T03:33:52;95826.22;;;19.12;98.17
73674;BME280;61975;48.660;10.164;2023-08-24T03:36:17;95831.03;;;19.12;98.08
73674;BME280;61975;48.660;10.164;2023-08-24T03:38:44;95819.78;;;19.12;98.14
73674;BME280;61975;48.660;10.164;2023-08-24T03:41:10;95816.16;;;19.11;98.05
73674;BME280;61975;48.660;10.164;2023-08-24T03:43:36;95809.81;;;19.07;98.24
73674;BME280;61975;48.660;10.164;2023-08-24T03:46:02;95816.25;;;19.08;98.22
73674;BME280;61975;48.660;10.164;2023-08-24T03:48:29;95816.31;;;19.04;98.47
73674;BME280;61975;48.660;10.164;2023-08-24T03:50:55;95811.56;;;19.01;98.51
73674;BME280;61975;48.660;10.164;2023-08-24T03:53:21;95815.69;;;18.96;99.69
73674;BME280;61975;48.660;10.164;2023-08-24T03:55:47;95816.13;;;18.95;100.00
73674;BME280;61975;48.660;10.164;2023-08-24T03:58:14;95812.50;;;18.94;100.00
73674;BME280;61975;48.660;10.164;2023-08-24T04:00:39;95813.31;;;18.95;99.74
73674;BME280;61975;48.660;10.164;2023-08-24T04:03:05;95808.47;;;18.95;99.20
73674;BME280;61975;48.660;10.164;2023-08-24T04:05:31;95814.88;;;18.96;98.61
73674;BME280;61975;48.660;10.164;2023-08-24T04:07:56;95811.69;;;18.94;98.28
73674;BME280;61975;48.660;10.164;2023-08-24T04:10:21;95810.13;;;18.93;98.38
73674;BME280;61975;48.660;10.164;2023-08-24T04:12:47;95803.78;;;18.89;98.15
73674;BME280;61975;48.660;10.164;2023-08-24T04:15:12;95802.97;;;18.88;97.87
73674;BME280;61975;48.660;10.164;2023-08-24T04:17:37;95797.22;;;18.76;99.04
73674;BME280;61975;48.660;10.164;2023-08-24T04:20:03;95795.53;;;18.78;98.98
73674;BME280;61975;48.660;10.164;2023-08-24T04:22:31;95793.53;;;18.79;98.82
73674;BME280;61975;48.660;10.164;2023-08-24T04:24:57;95803.97;;;18.78;99.16
73674;BME280;61975;48.660;10.164;2023-08-24T04:27:22;95809.84;;;18.68;100.00
73674;BME280;61975;48.660;10.164;2023-08-24T04:29:48;95806.16;;;18.71;100.00
73674;BME280;61975;48.660;10.164;2023-08-24T04:32:14;95805.31;;;18.74;99.47
73674;BME280;61975;48.660;10.164;2023-08-24T04:34:39;95811.34;;;18.72;99.71
73674;BME280;61975;48.660;10.164;2023-08-24T04:37:05;95811.34;;;18.72;99.66
73674;BME280;61975;48.660;10.164;2023-08-24T04:39:31;95808.97;;;18.71;99.47
73674;BME280;61975;48.660;10.164;2023-08-24T04:41:57;95805.78;;;18.69;99.39
73674;BME280;61975;48.660;10.164;2023-08-24T04:44:23;95806.34;;;18.60;100.00
73674;BME280;61975;48.660;10.164;2023-08-24T04:46:49;95805.44;;;18.67;99.87
73674;BME280;61975;48.660;10.164;2023-08-24T04:49:15;95805.00;;;18.68;99.39
73674;BME280;61975;48.660;10.164;2023-08-24T04:51:40;95801.31;;;18.71;99.19
73674;BME280;61975;48.660;10.164;2023-08-24T04:54:05;95798.50;;;18.71;99.53
73674;BME280;61975;48.660;10.164;2023-08-24T04:56:31;95790.44;;;18.73;99.27
73674;BME280;61975;48.660;10.164;2023-08-24T04:58:57;95801.63;;;18.77;99.00
73674;BME280;61975;48.660;10.164;2023-08-24T05:01:26;95794.69;;;18.81;98.60
73674;BME280;61975;48.660;10.164;2023-08-24T05:03:53;95794.63;;;18.85;98.30
73674;BME280;61975;48.660;10.164;2023-08-24T05:06:20;95786.91;;;18.89;98.26
73674;BME280;61975;48.660;10.164;2023-08-24T05:08:45;95791.28;;;18.90;97.83
73674;BME280;61975;48.660;10.164;2023-08-24T05:11:17;95792.81;;;18.94;97.51
73674;BME280;61975;48.660;10.164;2023-08-24T05:13:43;95791.16;;;18.97;97.25
73674;BME280;61975;48.660;10.164;2023-08-24T05:16:09;95792.00;;;18.94;97.83
73674;BME280;61975;48.660;10.164;2023-08-24T05:18:35;95790.72;;;18.98;97.59
73674;BME280;61975;48.660;10.164;2023-08-24T05:21:04;95775.34;;;19.03;97.33
73674;BME280;61975;48.660;10.164;2023-08-24T05:23:33;95776.06;;;19.07;97.06
73674;BME280;61975;48.660;10.164;2023-08-24T05:26:00;95777.56;;;19.12;96.83
73674;BME280;61975;48.660;10.164;2023-08-24T05:28:27;95776.72;;;19.15;96.12
73674;BME280;61975;48.660;10.164;2023-08-24T05:30:53;95774.97;;;19.21;95.50
73674;BME280;61975;48.660;10.164;2023-08-24T05:33:20;95777.69;;;19.24;95.47
73674;BME280;61975;48.660;10.164;2023-08-24T05:35:46;95776.44;;;19.29;95.12
73674;BME280;61975;48.660;10.164;2023-08-24T05:38:13;95776.31;;;19.32;94.81
73674;BME280;61975;48.660;10.164;2023-08-24T05:40:38;95768.97;;;19.38;94.86
73674;BME280;61975;48.660;10.164;2023-08-24T05:43:04;95770.91;;;19.41;94.69
73674;BME280;61975;48.660;10.164;2023-08-24T05:45:29;95770.03;;;19.44;94.63
73674;BME280;61975;48.660;10.164;2023-08-24T05:47:55;95777.94;;;19.49;94.50
73674;BME280;61975;48.660;10.164;2023-08-24T05:50:20;95768.19;;;19.54;94.15
73674;BME280;61975;48.660;10.164;2023-08-24T05:52:46;95767.69;;;19.59;93.74
73674;BME280;61975;48.660;10.164;2023-08-24T05:55:11;95764.44;;;19.60;92.97
73674;BME280;61975;48.660;10.164;2023-08-24T05:57:36;95758.25;;;19.65;92.48
73674;BME280;61975;48.660;10.164;2023-08-24T06:00:03;95762.22;;;19.68;91.98
73674;BME280;61975;48.660;10.164;2023-08-24T06:02:29;95763.34;;;19.70;92.52
73674;BME280;61975;48.660;10.164;2023-08-24T06:04:54;95757.28;;;19.72;92.97
73674;BME280;61975;48.660;10.164;2023-08-24T06:07:19;95753.16;;;19.76;93.15
73674;BME280;61975;48.660;10.164;2023-08-24T06:09:46;95751.03;;;19.80;92.95
73674;BME280;61975;48.660;10.164;2023-08-24T06:12:12;95744.53;;;19.83;92.91
73674;BME280;61975;48.660;10.164;2023-08-24T06:14:37;95741.19;;;19.88;92.39
73674;BME280;61975;48.660;10.164;2023-08-24T06:17:03;95747.53;;;19.92;91.98
73674;BME280;61975;48.660;10.164;2023-08-24T06:19:28;95749.81;;;19.97;91.68
73674;BME280;61975;48.660;10.164;2023-08-24T06:21:53;95750.50;;;20.01;91.21
73674;BME280;61975;48.660;10.164;2023-08-24T06:24:19;95752.81;;;20.06;91.23
73674;BME280;61975;48.660;10.164;2023-08-24T06:26:45;95747.81;;;20.14;91.33
73674;BME280;61975;48.660;10.164;2023-08-24T06:29:10;95747.28;;;20.19;91.12
73674;BME280;61975;48.660;10.164;2023-08-24T06:31:35;95738.63;;;20.26;90.78
73674;BME280;61975;48.660;10.164;2023-08-24T06:34:01;95738.44;;;20.33;90.21
73674;BME280;61975;48.660;10.164;2023-08-24T06:36:26;95733.41;;;20.40;89.70
73674;BME280;61975;48.660;10.164;2023-08-24T06:38:51;95732.31;;;20.50;89.17
73674;BME280;61975;48.660;10.164;2023-08-24T06:41:17;95728.84;;;20.59;88.55
73674;BME280;61975;48.660;10.164;2023-08-24T06:43:42;95735.88;;;20.67;87.26
73674;BME280;61975;48.660;10.164;2023-08-24T06:46:07;95731.16;;;20.76;86.89
73674;BME280;61975;48.660;10.164;2023-08-24T06:48:34;95736.13;;;20.85;86.93
73674;BME280;61975;48.660;10.164;2023-08-24T06:51:00;95727.84;;;20.94;86.50
73674;BME280;61975;48.660;10.164;2023-08-24T06:53:25;95730.47;;;21.01;86.08
73674;BME280;61975;48.660;10.164;2023-08-24T06:55:57;95725.72;;;21.10;85.83
73674;BME280;61975;48.660;10.164;2023-08-24T06:58:23;95732.72;;;21.18;85.48
73674;BME280;61975;48.660;10.164;2023-08-24T07:00:49;95736.13;;;21.26;84.71
73674;BME280;61975;48.660;10.164;2023-08-24T07:03:17;95729.81;;;21.34;84.10
73674;BME280;61975;48.660;10.164;2023-08-24T07:05:44;95729.47;;;21.45;83.79
73674;BME280;61975;48.660;10.164;2023-08-24T07:08:09;95729.16;;;21.55;82.85
73674;BME280;61975;48.660;10.164;2023-08-24T07:10:35;95736.81;;;21.67;81.39
73674;BME280;61975;48.660;10.164;2023-08-24T07:13:00;95730.41;;;21.80;80.34
73674;BME280;61975;48.660;10.164;2023-08-24T07:15:26;95745.31;;;21.93;79.68
73674;BME280;61975;48.660;10.164;2023-08-24T07:17:51;95732.28;;;22.08;78.45
73674;BME280;61975;48.660;10.164;2023-08-24T07:20:17;95731.78;;;22.22;75.94
73674;BME280;61975;48.660;10.164;2023-08-24T07:22:43;95733.78;;;22.34;74.22
73674;BME280;61975;48.660;10.164;2023-08-24T07:25:08;95729.94;;;22.40;73.18
73674;BME280;61975;48.660;10.164;2023-08-24T07:27:35;95727.09;;;22.53;73.48
73674;BME280;61975;48.660;10.164;2023-08-24T07:30:02;95736.63;;;22.68;73.43
73674;BME280;61975;48.660;10.164;2023-08-24T07:32:34;95741.78;;;22.82;72.46
73674;BME280;61975;48.660;10.164;2023-08-24T07:35:00;95738.88;;;22.94;72.03
73674;BME280;61975;48.660;10.164;2023-08-24T07:37:26;95741.66;;;23.07;71.93
73674;BME280;61975;48.660;10.164;2023-08-24T07:39:51;95735.25;;;23.15;71.20
73674;BME280;61975;48.660;10.164;2023-08-24T07:42:20;95743.53;;;23.22;70.71
73674;BME280;61975;48.660;10.164;2023-08-24T07:44:45;95751.28;;;23.31;69.62
73674;BME280;61975;48.660;10.164;2023-08-24T07:47:11;95748.44;;;23.31;68.74
73674;BME280;61975;48.660;10.164;2023-08-24T07:49:36;95741.84;;;23.34;67.92
73674;BME280;61975;48.660;10.164;2023-08-24T07:52:02;95733.06;;;23.41;67.88
73674;BME280;61975;48.660;10.164;2023-08-24T07:54:27;95723.63;;;23.44;68.23
73674;BME280;61975;48.660;10.164;2023-08-24T07:56:53;95727.44;;;23.50;67.58
73674;BME280;61975;48.660;10.164;2023-08-24T07:59:18;95731.09;;;23.50;67.53
73674;BME280;61975;48.660;10.164;2023-08-24T08:01:43;95724.47;;;23.53;67.27
73674;BME280;61975;48.660;10.164;2023-08-24T08:04:09;95722.94;;;23.61;67.38
73674;BME280;61975;48.660;10.164;2023-08-24T08:06:34;95726.25;;;23.69;68.53
73674;BME280;61975;48.660;10.164;2023-08-24T08:08:59;95721.38;;;23.69;67.28
73674;BME280;61975;48.660;10.164;2023-08-24T08:11:25;95722.53;;;23.81;66.90
73674;BME280;61975;48.660;10.164;2023-08-24T08:13:51;95730.59;;;23.91;66.92
73674;BME280;61975;48.660;10.164;2023-08-24T08:16:16;95723.59;;;24.05;66.92
73674;BME280;61975;48.660;10.164;2023-08-24T08:18:41;95718.56;;;24.18;65.99
73674;BME280;61975;48.660;10.164;2023-08-24T08:21:14;95720.19;;;24.28;65.51
73674;BME280;61975;48.660;10.164;2023-08-24T08:23:39;95726.31;;;24.36;64.52
73674;BME280;61975;48.660;10.164;2023-08-24T08:26:05;95720.66;;;24.45;65.07
73674;BME280;61975;48.660;10.164;2023-08-24T08:28:31;95712.94;;;24.54;65.00
73674;BME280;61975;48.660;10.164;2023-08-24T08:30:58;95715.47;;;24.61;64.92
73674;BME280;61975;48.660;10.164;2023-08-24T08:33:24;95709.19;;;24.66;64.56
73674;BME280;61975;48.660;10.164;2023-08-24T08:35:49;95706.97;;;24.70;63.66
73674;BME280;61975;48.660;10.164;2023-08-24T08:38:15;95704.91;;;24.71;63.46
73674;BME280;61975;48.660;10.164;2023-08-24T08:40:40;95716.91;;;24.75;63.32
73674;BME280;61975;48.660;10.164;2023-08-24T08:43:06;95721.47;;;24.81;63.33
73674;BME280;61975;48.660;10.164;2023-08-24T08:45:32;95711.56;;;24.86;63.04
73674;BME280;61975;48.660;10.164;2023-08-24T08:47:59;95712.47;;;24.92;62.79
73674;BME280;61975;48.660;10.164;2023-08-24T08:50:26;95716.72;;;24.96;62.86
73674;BME280;61975;48.660;10.164;2023-08-24T08:52:52;95704.75;;;25.01;62.18
73674;BME280;61975;48.660;10.164;2023-08-24T08:55:18;95705.19;;;25.09;62.09
73674;BME280;61975;48.660;10.164;2023-08-24T08:57:47;95711.00;;;25.14;61.91
73674;BME280;61975;48.660;10.164;2023-08-24T09:00:15;95708.31;;;25.20;60.96
73674;BME280;61975;48.660;10.164;2023-08-24T09:02:43;95701.06;;;25.28;61.36
73674;BME280;61975;48.660;10.164;2023-08-24T09:05:10;95705.63;;;25.34;61.71
73674;BME280;61975;48.660;10.164;2023-08-24T09:07:36;95692.66;;;25.42;61.46
73674;BME280;61975;48.660;10.164;2023-08-24T09:10:04;95696.75;;;25.50;61.10
73674;BME280;61975;48.660;10.164;2023-08-24T09:12:31;95694.34;;;25.58;60.98
73674;BME280;61975;48.660;10.164;2023-08-24T09:14:58;95690.38;;;25.64;61.03
73674;BME280;61975;48.660;10.164;2023-08-24T09:17:23;95694.16;;;25.70;60.70
73674;BME280;61975;48.660;10.164;2023-08-24T09:19:55;95684.47;;;25.77;60.59
73674;BME280;61975;48.660;10.164;2023-08-24T09:22:22;95693.63;;;25.81;59.67
73674;BME280;61975;48.660;10.164;2023-08-24T09:24:48;95687.88;;;25.90;60.44
73674;BME280;61975;48.660;10.164;2023-08-24T09:27:17;95689.28;;;25.94;59.86
73674;BME280;61975;48.660;10.164;2023-08-24T09:29:46;95696.22;;;26.02;60.65
73674;BME280;61975;48.660;10.164;2023-08-24T09:32:13;95689.69;;;26.11;60.28
73674;BME280;61975;48.660;10.164;2023-08-24T09:34:38;95684.94;;;26.17;61.13
73674;BME280;61975;48.660;10.164;2023-08-24T09:37:04;95682.38;;;26.19;60.08
73674;BME280;61975;48.660;10.164;2023-08-24T09:39:37;95685.31;;;26.24;60.43
73674;BME280;61975;48.660;10.164;2023-08-24T09:42:02;95680.56;;;26.30;60.46
73674;BME280;61975;48.660;10.164;2023-08-24T09:44:28;95685.56;;;26.35;60.66
73674;BME280;61975;48.660;10.164;2023-08-24T09:46:53;95685.69;;;26.41;61.15
73674;BME280;61975;48.660;10.164;2023-08-24T09:49:19;95684.72;;;26.44;60.15
73674;BME280;61975;48.660;10.164;2023-08-24T09:51:44;95678.38;;;26.49;60.23
73674;BME280;61975;48.660;10.164;2023-08-24T09:54:10;95675.78;;;26.51;60.59
73674;BME280;61975;48.660;10.164;2023-08-24T09:56:38;95681.47;;;26.60;60.68
73674;BME280;61975;48.660;10.164;2023-08-24T09:59:14;95671.75;;;26.67;60.05
73674;BME280;61975;48.660;10.164;2023-08-24T10:01:44;95660.19;;;26.70;59.72
73674;BME280;61975;48.660;10.164;2023-08-24T10:04:14;95664.69;;;26.77;60.54
73674;BME280;61975;48.660;10.164;2023-08-24T10:06:40;95653.63;;;26.79;60.17
73674;BME280;61975;48.660;10.164;2023-08-24T10:09:14;95649.91;;;26.87;60.18
73674;BME280;61975;48.660;10.164;2023-08-24T10:11:50;95645.09;;;26.93;61.00
73674;BME280;61975;48.660;10.164;2023-08-24T10:14:38;95642.03;;;26.97;60.21
73674;BME280;61975;48.660;10.164;2023-08-24T10:17:07;95639.28;;;27.02;61.27
73674;BME280;61975;48.660;10.164;2023-08-24T10:19:33;95641.97;;;27.06;60.00
73674;BME280;61975;48.660;10.164;2023-08-24T10:22:01;95626.53;;;27.12;60.32
73674;BME280;61975;48.660;10.164;2023-08-24T10:24:28;95630.53;;;27.20;60.46
73674;BME280;61975;48.660;10.164;2023-08-24T10:26:55;95619.25;;;27.26;60.21
73674;BME280;61975;48.660;10.164;2023-08-24T10:29:22;95624.06;;;27.34;60.60
73674;BME280;61975;48.660;10.164;2023-08-24T10:31:49;95619.06;;;27.44;60.44
73674;BME280;61975;48.660;10.164;2023-08-24T10:34:15;95610.09;;;27.51;60.47
73674;BME280;61975;48.660;10.164;2023-08-24T10:36:41;95610.69;;;27.55;59.82
73674;BME280;61975;48.660;10.164;2023-08-24T10:39:06;95596.69;;;27.57;58.90
73674;BME280;61975;48.660;10.164;2023-08-24T10:41:51;95593.44;;;27.64;59.38
73674;BME280;61975;48.660;10.164;2023-08-24T10:44:37;95584.44;;;27.71;59.86
73674;BME280;61975;48.660;10.164;2023-08-24T10:47:19;95576.78;;;27.77;60.00
73674;BME280;61975;48.660;10.164;2023-08-24T10:52:26;95567.19;;;27.94;59.56
73674;BME280;61975;48.660;10.164;2023-08-24T10:54:55;95568.84;;;28.01;58.91
73674;BME280;61975;48.660;10.164;2023-08-24T10:57:25;95561.13;;;28.07;58.67
73674;BME280;61975;48.660;10.164;2023-08-24T11:00:20;95564.06;;;28.12;58.58
73674;BME280;61975;48.660;10.164;2023-08-24T11:02:49;95562.63;;;28.22;57.41
73674;BME280;61975;48.660;10.164;2023-08-24T11:08:03;95555.53;;;28.38;57.24
73674;BME280;61975;48.660;10.164;2023-08-24T11:10:45;95550.72;;;28.44;56.94
73674;BME280;61975;48.660;10.164;2023-08-24T11:13:15;95548.97;;;28.52;55.33
73674;BME280;61975;48.660;10.164;2023-08-24T11:15:48;95541.53;;;28.60;54.23
73674;BME280;61975;48.660;10.164;2023-08-24T11:20:56;95536.78;;;28.77;55.22
73674;BME280;61975;48.660;10.164;2023-08-24T11:23:25;95542.31;;;28.86;55.44
73674;BME280;61975;48.660;10.164;2023-08-24T11:25:52;95539.50;;;28.91;54.00
73674;BME280;61975;48.660;10.164;2023-08-24T11:28:22;95535.41;;;28.98;54.63
73674;BME280;61975;48.660;10.164;2023-08-24T11:30:47;95537.63;;;29.09;54.89
73674;BME280;61975;48.660;10.164;2023-08-24T11:33:13;95532.25;;;29.22;53.47
73674;BME280;61975;48.660;10.164;2023-08-24T11:35:42;95526.34;;;29.31;52.68
73674;BME280;61975;48.660;10.164;2023-08-24T11:38:07;95525.66;;;29.41;52.68
73674;BME280;61975;48.660;10.164;2023-08-24T11:40:33;95513.75;;;29.48;52.33
73674;BME280;61975;48.660;10.164;2023-08-24T11:42:59;95516.09;;;29.50;51.66
73674;BME280;61975;48.660;10.164;2023-08-24T11:45:31;95517.16;;;29.52;51.26
73674;BME280;61975;48.660;10.164;2023-08-24T11:47:58;95515.84;;;29.53;50.86
73674;BME280;61975;48.660;10.164;2023-08-24T11:50:25;95516.38;;;29.57;51.03
73674;BME280;61975;48.660;10.164;2023-08-24T11:52:52;95505.22;;;29.59;50.72
73674;BME280;61975;48.660;10.164;2023-08-24T11:55:18;95507.59;;;29.61;51.60
73674;BME280;61975;48.660;10.164;2023-08-24T11:57:44;95509.69;;;29.60;52.04
73674;BME280;61975;48.660;10.164;2023-08-24T12:00:10;95498.22;;;29.60;51.84
73674;BME280;61975;48.660;10.164;2023-08-24T12:02:40;95499.78;;;29.61;51.67
73674;BME280;61975;48.660;10.164;2023-08-24T12:05:06;95500.88;;;29.64;52.75
73674;BME280;61975;48.660;10.164;2023-08-24T12:07:32;95493.34;;;29.66;52.30
73674;BME280;61975;48.660;10.164;2023-08-24T12:10:00;95493.59;;;29.68;52.48
73674;BME280;61975;48.660;10.164;2023-08-24T12:12:27;95485.28;;;29.70;52.96
73674;BME280;61975;48.660;10.164;2023-08-24T12:14:55;95484.53;;;29.75;52.66
73674;BME280;61975;48.660;10.164;2023-08-24T12:17:20;95487.66;;;29.77;52.57
73674;BME280;61975;48.660;10.164;2023-08-24T12:19:57;95482.47;;;29.81;53.26
73674;BME280;61975;48.660;10.164;2023-08-24T12:22:23;95479.91;;;29.89;54.37
73674;BME280;61975;48.660;10.164;2023-08-24T12:24:49;95472.91;;;29.95;52.71
73674;BME280;61975;48.660;10.164;2023-08-24T12:27:18;95473.19;;;29.97;53.06
73674;BME280;61975;48.660;10.164;2023-08-24T12:29:45;95456.53;;;30.01;53.39
73674;BME280;61975;48.660;10.164;2023-08-24T12:32:11;95456.84;;;30.09;53.45
73674;BME280;61975;48.660;10.164;2023-08-24T12:34:36;95457.88;;;30.11;52.92
73674;BME280;61975;48.660;10.164;2023-08-24T12:37:01;95449.81;;;30.15;53.36
73674;BME280;61975;48.660;10.164;2023-08-24T12:39:27;95448.03;;;30.23;52.58
73674;BME280;61975;48.660;10.164;2023-08-24T12:41:52;95447.28;;;30.28;52.57
73674;BME280;61975;48.660;10.164;2023-08-24T12:44:18;95443.63;;;30.33;53.04
73674;BME280;61975;48.660;10.164;2023-08-24T12:46:43;95443.13;;;30.35;53.09
73674;BME280;61975;48.660;10.164;2023-08-24T12:49:11;95447.03;;;30.37;53.36
73674;BME280;61975;48.660;10.164;2023-08-24T12:51:36;95445.22;;;30.40;52.95
73674;BME280;61975;48.660;10.164;2023-08-24T12:54:02;95440.03;;;30.44;53.32
73674;BME280;61975;48.660;10.164;2023-08-24T12:56:28;95432.19;;;30.50;53.17
73674;BME280;61975;48.660;10.164;2023-08-24T12:58:53;95425.19;;;30.56;52.53
73674;BME280;61975;48.660;10.164;2023-08-24T13:01:19;95423.38;;;30.64;52.42
73674;BME280;61975;48.660;10.164;2023-08-24T13:03:44;95416.38;;;30.76;50.63
73674;BME280;61975;48.660;10.164;2023-08-24T13:06:10;95408.81;;;30.84;51.33